CKL6 weather

Little Bear Lake Airport
Little Bear Lake, Saskatchewan, Canada

Public forecast

Using degrees Celsius for public forecast. Weather courtesy of forecast.io.

Closest aviation weather report (METAR) to Little Bear Lake Airport

Closest report is La Ronge Airport, 55.5 nm (102.8 km) NNW. Retrieved 2020/06/03 16:00 UTC (45 minutes ago):

CYVC 031600Z 04010KT 15SM BKN055 OVC110 15/06 A2959 RMK SC6CI2 SLP029 DENSITY ALT 2000FT

Closest aviation forecast (TAF) to Little Bear Lake Airport

Closest forecast is La Ronge Airport, 55.5 nm (102.8 km) NNW. Retrieved 2020/06/03 13:39 UTC (3 hours ago):

TAF CYVC 031238Z 0313/0401 VRB03KT P6SM SCT080 BKN130 FM031400 08008KT P6SM SCT070 OVC120 TEMPO 0314/0318 P6SM -SHRA OVC070 FM031800 12010KT P6SM -RA OVC070 TEMPO 0318/0323 5SM -SHRA BR OVC040 FM032300 07012KT 6SM -RA OVC030 TEMPO 0323/0401 2SM SHRA SCT006 OVC015 RMK NXT FCST BY 031900Z